createdAt,value
2023-05-05T00:02:42.480Z,99681.06
2023-05-05T00:05:27.160Z,99673.75
2023-05-05T00:08:11.640Z,99673.56
2023-05-05T00:10:56.919Z,99674.53
2023-05-05T00:13:41.678Z,99677.31
2023-05-05T00:16:26.897Z,99675.72
2023-05-05T00:19:11.625Z,99670.97
2023-05-05T00:21:56.610Z,99677.50
2023-05-05T00:24:41.460Z,99678.28
2023-05-05T00:27:26.550Z,99670.97
2023-05-05T00:30:13.043Z,99677.69
2023-05-05T00:32:57.735Z,99671.19
2023-05-05T00:35:42.917Z,99667.81
2023-05-05T00:38:28.110Z,99673.53
2023-05-05T00:41:12.806Z,99668.63
2023-05-05T00:43:57.622Z,99664.47
2023-05-05T00:46:42.860Z,99661.31
2023-05-05T00:49:27.902Z,99658.53
2023-05-05T00:52:12.847Z,99657.16
2023-05-05T00:54:58.053Z,99653.22
2023-05-05T00:57:43.529Z,99655.38
2023-05-05T01:00:30.178Z,99653.00
2023-05-05T01:03:15.296Z,99655.16
2023-05-05T01:06:14.689Z,99656.16
2023-05-05T01:09:35.510Z,99650.44
2023-05-05T01:12:33.224Z,99641.75
2023-05-05T01:15:34.587Z,99643.94
2023-05-05T01:18:27.903Z,99640.56
2023-05-05T01:21:18.536Z,99639.78
2023-05-05T01:24:23.100Z,99635.63
2023-05-05T01:27:29.931Z,99630.28
2023-05-05T01:30:20.596Z,99627.16
2023-05-05T01:33:13.823Z,99639.97
2023-05-05T01:36:06.821Z,99636.03
2023-05-05T01:38:58.689Z,99638.78
2023-05-05T01:41:48.004Z,99640.72
2023-05-05T01:44:35.736Z,99651.56
2023-05-05T01:47:22.174Z,99653.94
2023-05-05T01:50:08.791Z,99639.69
2023-05-05T01:52:56.372Z,99631.03
2023-05-05T01:55:42.570Z,99624.09
2023-05-05T01:58:29.239Z,99624.50
2023-05-05T02:01:14.787Z,99614.41
2023-05-05T02:04:02.769Z,99611.03
2023-05-05T02:06:52.357Z,99611.22
2023-05-05T02:09:38.711Z,99614.72
2023-05-05T02:12:23.309Z,99618.03
2023-05-05T02:15:10.129Z,99625.72
2023-05-05T02:17:56.486Z,99625.66
2023-05-05T02:20:41.641Z,99631.72
2023-05-05T02:23:26.739Z,99629.50
2023-05-05T02:26:14.769Z,99630.81
2023-05-05T02:29:07.188Z,99629.94
2023-05-05T02:31:58.789Z,99623.44
2023-05-05T02:34:48.897Z,99613.75
2023-05-05T02:37:36.325Z,99621.63
2023-05-05T02:40:23.847Z,99621.81
2023-05-05T02:43:15.012Z,99633.63
2023-05-05T02:45:59.913Z,99626.31
2023-05-05T02:48:45.831Z,99628.31
2023-05-05T02:51:31.970Z,99626.97
2023-05-05T02:54:21.141Z,99629.78
2023-05-05T02:57:08.460Z,99632.38
2023-05-05T03:00:05.083Z,99627.69
2023-05-05T03:03:06.225Z,99620.03
2023-05-05T03:06:15.641Z,99622.09
2023-05-05T03:09:08.073Z,99619.41
2023-05-05T03:12:08.368Z,99618.13
2023-05-05T03:15:06.024Z,99620.53
2023-05-05T03:17:53.550Z,99622.19
2023-05-05T03:20:40.088Z,99622.19
2023-05-05T03:23:27.349Z,99620.44
2023-05-05T03:26:17.932Z,99630.91
2023-05-05T03:29:06.068Z,99620.25
2023-05-05T03:31:52.116Z,99624.03
2023-05-05T03:34:37.164Z,99622.25
2023-05-05T03:37:22.908Z,99629.13
2023-05-05T03:40:08.912Z,99618.25
2023-05-05T03:42:54.254Z,99616.84
2023-05-05T03:45:39.282Z,99619.81
2023-05-05T03:48:25.077Z,99622.63
2023-05-05T03:51:10.298Z,99626.22
2023-05-05T03:53:55.518Z,99634.06
2023-05-05T03:56:40.819Z,99630.09
2023-05-05T03:59:25.321Z,99629.44
2023-05-05T04:02:10.377Z,99636.94
2023-05-05T04:04:55.313Z,99631.63
2023-05-05T04:07:40.373Z,99631.25
2023-05-05T04:10:25.192Z,99634.69
2023-05-05T04:13:10.300Z,99632.91
2023-05-05T04:15:56.019Z,99644.50
2023-05-05T04:18:41.337Z,99640.75
2023-05-05T04:21:26.364Z,99642.94
2023-05-05T04:24:11.342Z,99649.00
2023-05-05T04:26:56.368Z,99646.88
2023-05-05T04:29:41.168Z,99640.16
2023-05-05T04:32:26.468Z,99642.84
2023-05-05T04:35:12.313Z,99635.81
2023-05-05T04:37:57.545Z,99640.34
2023-05-05T04:40:42.970Z,99651.66
2023-05-05T04:43:28.704Z,99639.72
2023-05-05T04:46:13.942Z,99640.59
2023-05-05T04:48:58.929Z,99642.69
2023-05-05T04:51:44.365Z,99647.97
2023-05-05T04:54:29.360Z,99647.16
2023-05-05T04:57:14.225Z,99652.34
2023-05-05T05:00:00.376Z,99646.53
2023-05-05T05:02:45.403Z,99652.72
2023-05-05T05:05:30.805Z,99653.16
2023-05-05T05:08:16.412Z,99654.84
2023-05-05T05:11:00.936Z,99652.25
2023-05-05T05:13:46.563Z,99653.38
2023-05-05T05:16:31.413Z,99658.88
2023-05-05T05:19:16.526Z,99652.94
2023-05-05T05:22:01.552Z,99652.94
2023-05-05T05:24:48.594Z,99654.72
2023-05-05T05:27:33.917Z,99662.19
2023-05-05T05:30:18.803Z,99657.09
2023-05-05T05:33:11.478Z,99660.13
2023-05-05T05:35:57.663Z,99660.50
2023-05-05T05:38:43.051Z,99651.91
2023-05-05T05:41:27.828Z,99656.25
2023-05-05T05:44:12.878Z,99642.88
2023-05-05T05:46:57.861Z,99650.81
2023-05-05T05:49:43.512Z,99651.63
2023-05-05T05:52:28.974Z,99648.69
2023-05-05T05:55:13.939Z,99648.38
2023-05-05T05:57:59.578Z,99647.75
2023-05-05T06:00:44.300Z,99648.31
2023-05-05T06:03:30.270Z,99654.19
2023-05-05T06:06:15.460Z,99652.16
2023-05-05T06:09:24.640Z,99654.66
2023-05-05T06:12:11.677Z,99650.75
2023-05-05T06:14:57.074Z,99655.06
2023-05-05T06:17:42.178Z,99650.81
2023-05-05T06:20:27.299Z,99649.81
2023-05-05T06:23:12.945Z,99660.09
2023-05-05T06:26:02.812Z,99653.19
2023-05-05T06:28:50.224Z,99658.06
2023-05-05T06:31:37.271Z,99658.78
2023-05-05T06:34:24.509Z,99659.69
2023-05-05T06:37:09.317Z,99650.03
2023-05-05T06:39:56.784Z,99643.47
2023-05-05T06:42:49.908Z,99637.38
2023-05-05T06:45:41.949Z,99644.41
2023-05-05T06:48:31.023Z,99646.66
2023-05-05T06:51:19.174Z,99634.41
2023-05-05T06:54:05.805Z,99646.69
2023-05-05T06:56:53.393Z,99635.25
2023-05-05T06:59:38.123Z,99642.72
2023-05-05T07:02:25.288Z,99643.88
2023-05-05T07:05:11.271Z,99645.22
2023-05-05T07:07:56.760Z,99651.56
2023-05-05T07:10:42.041Z,99659.44
2023-05-05T07:13:27.070Z,99662.41
2023-05-05T07:16:12.316Z,99652.31
2023-05-05T07:19:00.251Z,99658.31
2023-05-05T07:22:05.340Z,99654.16
2023-05-05T07:24:52.694Z,99648.44
2023-05-05T07:27:40.959Z,99644.00
2023-05-05T07:30:26.478Z,99637.97
2023-05-05T07:33:19.070Z,99647.34
2023-05-05T07:36:06.762Z,99638.78
2023-05-05T07:38:51.703Z,99628.84
2023-05-05T07:41:36.648Z,99645.00
2023-05-05T07:44:21.542Z,99646.31
2023-05-05T07:47:06.501Z,99635.91
2023-05-05T07:49:51.392Z,99646.06
2023-05-05T07:52:46.517Z,99647.81
2023-05-05T07:55:37.268Z,99655.03
2023-05-05T07:58:22.417Z,99646.63
2023-05-05T08:01:10.224Z,99646.91
2023-05-05T08:03:58.454Z,99641.13
2023-05-05T08:06:43.273Z,99650.78
2023-05-05T08:09:28.287Z,99647.78
2023-05-05T08:12:14.695Z,99650.56
2023-05-05T08:14:59.419Z,99647.91
2023-05-05T08:17:52.369Z,99648.19
2023-05-05T08:20:37.516Z,99650.66
2023-05-05T08:23:22.274Z,99649.53
2023-05-05T08:26:08.602Z,99642.28
2023-05-05T08:29:03.305Z,99642.50
2023-05-05T08:31:48.206Z,99626.63
2023-05-05T08:34:33.301Z,99634.38
2023-05-05T08:37:27.190Z,99635.78
2023-05-05T08:40:13.919Z,99630.13
2023-05-05T08:42:59.368Z,99636.06
2023-05-05T08:45:44.751Z,99631.69
2023-05-05T08:48:34.737Z,99632.97
2023-05-05T08:51:20.030Z,99637.34
2023-05-05T08:54:09.529Z,99632.88
2023-05-05T08:56:59.355Z,99643.50
2023-05-05T08:59:44.947Z,99630.44
2023-05-05T09:02:30.897Z,99635.25
2023-05-05T09:05:16.146Z,99634.00
2023-05-05T09:08:04.365Z,99633.91
2023-05-05T09:10:51.066Z,99643.16
2023-05-05T09:13:46.800Z,99646.47
2023-05-05T09:16:32.688Z,99640.53
2023-05-05T09:19:17.338Z,99634.19
2023-05-05T09:22:02.496Z,99628.06
2023-05-05T09:24:54.748Z,99625.38
2023-05-05T09:27:48.236Z,99637.13
2023-05-05T09:30:35.019Z,99629.34
2023-05-05T09:33:33.108Z,99624.44
2023-05-05T09:36:20.320Z,99622.31
2023-05-05T09:39:05.925Z,99621.13
2023-05-05T09:41:51.080Z,99620.56
2023-05-05T09:44:40.213Z,99614.16
2023-05-05T09:47:36.165Z,99623.53
2023-05-05T09:50:22.054Z,99619.00
2023-05-05T09:53:07.746Z,99607.03
2023-05-05T09:56:02.434Z,99598.88
2023-05-05T09:58:47.339Z,99608.38
2023-05-05T10:01:32.406Z,99607.34
2023-05-05T10:04:28.612Z,99607.13
2023-05-05T10:07:22.048Z,99600.97
2023-05-05T10:10:13.090Z,99599.41
2023-05-05T10:13:01.683Z,99599.09
2023-05-05T10:15:49.434Z,99598.47
2023-05-05T10:18:35.398Z,99595.31
2023-05-05T10:21:21.227Z,99594.38
2023-05-05T10:24:11.217Z,99589.81
2023-05-05T10:26:58.222Z,99598.88
2023-05-05T10:30:03.994Z,99593.19
2023-05-05T10:33:13.180Z,99596.09
2023-05-05T10:36:06.017Z,99601.56
2023-05-05T10:38:55.866Z,99611.28
2023-05-05T10:41:41.474Z,99601.75
2023-05-05T10:44:29.682Z,99591.00
2023-05-05T10:47:16.310Z,99582.44
2023-05-05T10:50:11.698Z,99586.25
2023-05-05T10:53:13.800Z,99578.84
2023-05-05T10:56:18.128Z,99580.13
2023-05-05T10:59:21.722Z,99573.34
2023-05-05T11:02:29.316Z,99572.50
2023-05-05T11:05:20.506Z,99566.34
2023-05-05T11:08:25.231Z,99570.28
2023-05-05T11:11:12.244Z,99571.28
2023-05-05T11:14:19.063Z,99581.81
2023-05-05T11:17:03.958Z,99579.69
2023-05-05T11:19:51.099Z,99572.53
2023-05-05T11:23:01.784Z,99569.59
2023-05-05T11:25:46.612Z,99559.78
2023-05-05T11:28:31.457Z,99548.13
2023-05-05T11:31:17.925Z,99547.50
2023-05-05T11:34:24.370Z,99549.22
2023-05-05T11:37:09.468Z,99546.38
2023-05-05T11:40:15.108Z,99552.06
2023-05-05T11:43:05.264Z,99552.03
2023-05-05T11:46:08.644Z,99557.69
2023-05-05T11:48:53.469Z,99556.50
2023-05-05T11:51:39.222Z,99561.34
2023-05-05T11:54:24.667Z,99559.47
2023-05-05T11:57:09.655Z,99563.50
2023-05-05T11:59:55.977Z,99554.16
2023-05-05T12:02:41.005Z,99546.97
2023-05-05T12:05:25.882Z,99540.63
2023-05-05T12:08:11.076Z,99539.19
2023-05-05T12:11:03.568Z,99528.69
2023-05-05T12:13:48.241Z,99520.91
2023-05-05T12:16:32.695Z,99526.28
2023-05-05T12:19:17.756Z,99521.84
2023-05-05T12:22:03.886Z,99532.34
2023-05-05T12:24:54.999Z,99527.72
2023-05-05T12:27:40.741Z,99524.38
2023-05-05T12:30:25.710Z,99530.88
2023-05-05T12:33:10.569Z,99528.88
2023-05-05T12:35:56.028Z,99524.81
2023-05-05T12:38:41.482Z,99522.13
2023-05-05T12:41:27.326Z,99513.97
2023-05-05T12:44:11.840Z,99510.16
2023-05-05T12:46:58.568Z,99506.06
2023-05-05T12:49:51.958Z,99509.84
2023-05-05T12:52:44.330Z,99507.63
2023-05-05T12:55:36.971Z,99510.06
2023-05-05T12:58:22.028Z,99520.44
2023-05-05T13:01:10.600Z,99517.22
2023-05-05T13:04:12.304Z,99518.16
2023-05-05T13:07:14.246Z,99523.34
2023-05-05T13:10:10.253Z,99517.25
2023-05-05T13:12:56.184Z,99518.84
2023-05-05T13:15:41.023Z,99505.88
2023-05-05T13:18:26.917Z,99507.25
2023-05-05T13:21:11.774Z,99500.47
2023-05-05T13:24:08.115Z,99504.34
2023-05-05T13:27:02.818Z,99496.84
2023-05-05T13:29:50.265Z,99502.56
2023-05-05T13:32:35.620Z,99493.59
2023-05-05T13:35:20.239Z,99482.59
2023-05-05T13:38:04.818Z,99492.94
2023-05-05T13:40:49.797Z,99485.41
2023-05-05T13:43:34.718Z,99487.75
2023-05-05T13:46:20.438Z,99496.41
2023-05-05T13:49:05.194Z,99495.31
2023-05-05T13:51:50.213Z,99481.91
2023-05-05T13:54:36.148Z,99495.19
2023-05-05T13:57:20.610Z,99481.72
2023-05-05T14:00:06.234Z,99478.22
2023-05-05T14:02:52.047Z,99493.31
2023-05-05T14:05:37.219Z,99487.63
2023-05-05T14:08:22.512Z,99484.03
2023-05-05T14:11:07.189Z,99477.59
2023-05-05T14:13:52.104Z,99478.44
2023-05-05T14:16:36.890Z,99468.69
2023-05-05T14:19:21.813Z,99473.06
2023-05-05T14:22:06.631Z,99465.97
2023-05-05T14:24:51.487Z,99463.63
2023-05-05T14:27:36.172Z,99469.81
2023-05-05T14:30:20.800Z,99470.56
2023-05-05T14:33:06.279Z,99478.25
2023-05-05T14:35:51.486Z,99474.47
2023-05-05T14:38:36.324Z,99479.16
2023-05-05T14:41:21.146Z,99478.47
2023-05-05T14:44:06.179Z,99482.53
2023-05-05T14:46:51.742Z,99485.38
2023-05-05T14:49:36.546Z,99482.25
2023-05-05T14:52:21.538Z,99488.25
2023-05-05T14:55:06.834Z,99489.34
2023-05-05T14:57:51.690Z,99489.47
2023-05-05T15:00:36.512Z,99490.91
2023-05-05T15:03:22.603Z,99488.88
2023-05-05T15:06:08.246Z,99494.84
2023-05-05T15:08:53.304Z,99502.94
2023-05-05T15:11:38.394Z,99503.50
2023-05-05T15:14:23.140Z,99496.72
2023-05-05T15:17:08.368Z,99497.53
2023-05-05T15:19:53.371Z,99499.34
2023-05-05T15:22:38.436Z,99499.63
2023-05-05T15:25:23.488Z,99493.88
2023-05-05T15:28:08.410Z,99502.25
2023-05-05T15:30:53.475Z,99501.25
2023-05-05T15:33:39.197Z,99511.16
2023-05-05T15:36:24.089Z,99506.72
2023-05-05T15:39:09.198Z,99503.84
2023-05-05T15:41:53.701Z,99507.75
2023-05-05T15:44:38.837Z,99511.66
2023-05-05T15:47:23.633Z,99505.63
2023-05-05T15:50:08.819Z,99506.91
2023-05-05T15:52:56.182Z,99513.41
2023-05-05T15:55:41.158Z,99518.31
2023-05-05T15:58:26.136Z,99516.75
2023-05-05T16:01:28.382Z,99510.72
2023-05-05T16:04:13.256Z,99510.16
2023-05-05T16:06:58.615Z,99509.09
2023-05-05T16:09:43.733Z,99516.28
2023-05-05T16:12:28.567Z,99516.28
2023-05-05T16:15:13.535Z,99512.66
2023-05-05T16:17:58.595Z,99514.19
2023-05-05T16:20:43.537Z,99515.47
2023-05-05T16:23:28.546Z,99517.00
2023-05-05T16:26:13.331Z,99521.06
2023-05-05T16:28:58.211Z,99518.41
2023-05-05T16:31:43.230Z,99525.63
2023-05-05T16:34:28.271Z,99524.78
2023-05-05T16:37:13.308Z,99526.50
2023-05-05T16:39:58.852Z,99523.34
2023-05-05T16:42:44.598Z,99525.34
2023-05-05T16:45:29.544Z,99524.56
2023-05-05T16:48:14.449Z,99525.66
2023-05-05T16:50:59.055Z,99532.31
2023-05-05T16:53:43.715Z,99526.75
2023-05-05T16:56:28.694Z,99537.28
2023-05-05T16:59:15.810Z,99534.59
2023-05-05T17:02:00.913Z,99529.28
2023-05-05T17:04:45.637Z,99541.09
2023-05-05T17:07:30.188Z,99541.53
2023-05-05T17:10:15.386Z,99540.09
2023-05-05T17:13:00.401Z,99543.03
2023-05-05T17:15:45.307Z,99545.19
2023-05-05T17:18:30.308Z,99543.94
2023-05-05T17:21:15.539Z,99551.41
2023-05-05T17:24:00.985Z,99555.50
2023-05-05T17:26:46.102Z,99545.50
2023-05-05T17:29:32.238Z,99546.09
2023-05-05T17:32:16.982Z,99555.28
2023-05-05T17:35:02.303Z,99564.25
2023-05-05T17:37:46.830Z,99558.00
2023-05-05T17:40:31.938Z,99560.38
2023-05-05T17:43:17.317Z,99562.28
2023-05-05T17:46:02.147Z,99565.00
2023-05-05T17:48:47.047Z,99569.28
2023-05-05T17:51:32.200Z,99576.59
2023-05-05T17:54:17.197Z,99571.06
2023-05-05T17:57:02.287Z,99575.91
2023-05-05T17:59:49.008Z,99583.41
2023-05-05T18:02:37.360Z,99582.16
2023-05-05T18:05:22.524Z,99588.66
2023-05-05T18:08:07.301Z,99586.44
2023-05-05T18:10:53.458Z,99583.50
2023-05-05T18:13:38.869Z,99582.63
2023-05-05T18:16:23.641Z,99585.88
2023-05-05T18:19:10.788Z,99596.13
2023-05-05T18:21:56.768Z,99596.69
2023-05-05T18:24:41.320Z,99595.81
2023-05-05T18:27:27.127Z,99601.63
2023-05-05T18:30:12.190Z,99603.84
2023-05-05T18:32:57.374Z,99603.75
2023-05-05T18:35:42.237Z,99596.44
2023-05-05T18:38:27.324Z,99602.59
2023-05-05T18:41:12.356Z,99601.25
2023-05-05T18:43:57.195Z,99600.16
2023-05-05T18:46:46.280Z,99601.38
2023-05-05T18:49:31.576Z,99602.03
2023-05-05T18:52:16.550Z,99602.34
2023-05-05T18:55:01.558Z,99604.38
2023-05-05T18:57:46.483Z,99600.13
2023-05-05T19:00:31.539Z,99603.78
2023-05-05T19:03:16.955Z,99608.50
2023-05-05T19:06:05.564Z,99611.41
2023-05-05T19:08:50.570Z,99608.13
2023-05-05T19:11:35.752Z,99616.97
2023-05-05T19:14:21.836Z,99613.13
2023-05-05T19:17:06.941Z,99617.56
2023-05-05T19:19:52.018Z,99626.19
2023-05-05T19:22:36.861Z,99620.13
2023-05-05T19:25:21.822Z,99619.56
2023-05-05T19:28:06.718Z,99628.38
2023-05-05T19:30:51.673Z,99629.44
2023-05-05T19:33:36.727Z,99630.50
2023-05-05T19:36:21.734Z,99622.31
2023-05-05T19:39:06.603Z,99633.31
2023-05-05T19:41:52.372Z,99640.13
2023-05-05T19:44:37.164Z,99635.91
2023-05-05T19:47:21.973Z,99633.84
2023-05-05T19:50:07.956Z,99635.09
2023-05-05T19:52:54.154Z,99629.63
2023-05-05T19:55:39.205Z,99633.69
2023-05-05T19:58:23.768Z,99637.94
2023-05-05T20:01:08.917Z,99638.22
2023-05-05T20:03:55.574Z,99639.81
2023-05-05T20:06:40.697Z,99639.28
2023-05-05T20:09:26.854Z,99645.69
2023-05-05T20:12:11.706Z,99651.88
2023-05-05T20:14:56.398Z,99653.88
2023-05-05T20:17:41.522Z,99664.56
2023-05-05T20:20:25.991Z,99659.66
2023-05-05T20:23:11.127Z,99653.75
2023-05-05T20:25:56.160Z,99651.59
2023-05-05T20:28:44.182Z,99658.13
2023-05-05T20:31:30.824Z,99652.25
2023-05-05T20:34:15.327Z,99649.50
2023-05-05T20:37:00.470Z,99658.41
2023-05-05T20:39:46.665Z,99657.25
2023-05-05T20:42:31.217Z,99662.22
2023-05-05T20:45:16.420Z,99653.53
2023-05-05T20:48:01.438Z,99658.09
2023-05-05T20:50:46.230Z,99655.91
2023-05-05T20:53:31.471Z,99661.06
2023-05-05T20:56:16.666Z,99664.22
2023-05-05T20:59:03.400Z,99666.19
2023-05-05T21:01:48.163Z,99670.56
2023-05-05T21:04:33.306Z,99672.34
2023-05-05T21:07:18.337Z,99672.16
2023-05-05T21:10:04.292Z,99673.13
2023-05-05T21:12:49.631Z,99668.41
2023-05-05T21:15:37.934Z,99677.25
2023-05-05T21:18:25.080Z,99674.91
2023-05-05T21:21:10.228Z,99682.63
2023-05-05T21:23:55.522Z,99682.63
2023-05-05T21:26:44.810Z,99688.91
2023-05-05T21:29:33.743Z,99695.03
2023-05-05T21:32:18.597Z,99693.03
2023-05-05T21:35:05.678Z,99702.94
2023-05-05T21:37:50.824Z,99707.88
2023-05-05T21:40:35.585Z,99701.97
2023-05-05T21:43:20.679Z,99708.28
2023-05-05T21:46:05.569Z,99702.53
2023-05-05T21:48:50.708Z,99706.69
2023-05-05T21:51:36.650Z,99705.53
2023-05-05T21:54:21.366Z,99711.03
2023-05-05T21:57:06.456Z,99704.13
2023-05-05T21:59:51.475Z,99706.69
2023-05-05T22:02:36.449Z,99715.56
2023-05-05T22:05:21.375Z,99708.84
2023-05-05T22:08:06.437Z,99711.81
2023-05-05T22:10:51.572Z,99719.16
2023-05-05T22:13:38.289Z,99716.19
2023-05-05T22:16:23.428Z,99718.97
2023-05-05T22:19:08.132Z,99717.75
2023-05-05T22:21:52.800Z,99711.25
2023-05-05T22:24:37.769Z,99706.53
2023-05-05T22:27:22.772Z,99711.25
2023-05-05T22:30:08.309Z,99708.31
2023-05-05T22:32:53.058Z,99717.56
2023-05-05T22:35:38.171Z,99712.84
2023-05-05T22:38:22.880Z,99717.19
2023-05-05T22:41:07.950Z,99718.13
2023-05-05T22:43:52.365Z,99723.88
2023-05-05T22:46:37.721Z,99725.44
2023-05-05T22:49:22.395Z,99722.25
2023-05-05T22:52:08.048Z,99725.97
2023-05-05T22:54:52.912Z,99722.00
2023-05-05T22:57:37.991Z,99728.50
2023-05-05T23:00:23.552Z,99734.56
2023-05-05T23:03:08.461Z,99732.75
2023-05-05T23:05:53.518Z,99726.38
2023-05-05T23:08:37.997Z,99731.88
2023-05-05T23:11:22.683Z,99730.81
2023-05-05T23:14:07.509Z,99737.25
2023-05-05T23:16:52.002Z,99745.47
2023-05-05T23:19:37.125Z,99735.72
2023-05-05T23:22:22.012Z,99724.03
2023-05-05T23:25:08.126Z,99731.88
2023-05-05T23:27:53.132Z,99724.13
2023-05-05T23:30:37.983Z,99724.88
2023-05-05T23:33:22.430Z,99741.09
2023-05-05T23:36:08.456Z,99741.22
2023-05-05T23:38:53.082Z,99735.03
2023-05-05T23:41:38.112Z,99746.34
2023-05-05T23:44:23.151Z,99739.78
2023-05-05T23:47:07.920Z,99757.97
2023-05-05T23:49:52.854Z,99748.22
2023-05-05T23:52:37.766Z,99759.50
2023-05-05T23:55:22.316Z,99759.59
2023-05-05T23:58:07.316Z,99763.84
